Terminal Aerodrome Forecast
Issued by NWS

Home | Current Version | Previous Version | Text Only | Print | Product List | Glossary On
Versions: 1 2 3 4 5 6 7 8 9 10 11 12 13 14 15
000
FTUS42 KTAE 301737
TAFDHN
TAF
KDHN 301737Z 3018/3118 26010G18KT P6SM BKN070
      TEMPO 3018/3022 VRB15G25KT 3SM TSRA BKN050CB
     FM310000 29004KT P6SM SCT250
     FM310600 28004KT 4SM BR OVC050
     FM310900 00000KT 2SM BR OVC015
     FM311500 27008KT P6SM SCT050 BKN100=

USA.gov is the U.S. government's official web portal to all federal, state and local government web resources and services.